Time;durP1;ratioP1;P1;durP2;ratioP2;P2;SDS_P1;SDS_P2;PMS_P1;PMS_P2;Temp;Humidity;BMP_temperature;BMP_pressure;BME280_temperature;BME280_humidity;BME280_pressure;Samples;Min_cycle;Max_cycle;Signal;HPM_P1;HPM_P2
2023/04/07 00:00:04;;;;;;;11.80;11.00;;;;;;;;;;5017518;28;20033;-49
2023/04/07 00:02:31;;;;;;;12.35;11.48;;;;;;;;;;5017465;28;20037;-50
2023/04/07 00:04:57;;;;;;;11.63;10.68;;;;;;;;;;5019876;28;20037;-49
2023/04/07 00:07:22;;;;;;;11.00;10.30;;;;;;;;;;5019392;28;20037;-49
2023/04/07 00:09:48;;;;;;;11.32;10.52;;;;;;;;;;5022455;28;20029;-50
2023/04/07 00:12:13;;;;;;;10.93;10.13;;;;;;;;;;5015806;28;20045;-51
2023/04/07 00:14:38;;;;;;;10.20;9.57;;;;;;;;;;5015225;28;20372;-47
2023/04/07 00:17:04;;;;;;;10.48;9.77;;;;;;;;;;5019036;28;20371;-48
2023/04/07 00:19:29;;;;;;;10.80;10.10;;;;;;;;;;5016936;28;20072;-49
2023/04/07 00:21:54;;;;;;;10.68;9.98;;;;;;;;;;5011464;28;20061;-49
2023/04/07 00:24:20;;;;;;;11.07;10.35;;;;;;;;;;5018735;28;20129;-50
2023/04/07 00:26:45;;;;;;;10.93;10.23;;;;;;;;;;5013973;28;20118;-46
2023/04/07 00:29:10;;;;;;;11.48;10.65;;;;;;;;;;5011662;28;20444;-49
2023/04/07 00:31:36;;;;;;;12.82;12.02;;;;;;;;;;5016465;28;20148;-47
2023/04/07 00:34:01;;;;;;;10.18;9.55;;;;;;;;;;5017530;28;20041;-49
2023/04/07 00:36:27;;;;;;;11.40;10.70;;;;;;;;;;5015127;28;20033;-47
2023/04/07 00:38:53;;;;;;;10.60;9.75;;;;;;;;;;5016969;28;20038;-50
2023/04/07 00:41:18;;;;;;;10.63;10.00;;;;;;;;;;5017179;28;20743;-50
2023/04/07 00:43:44;;;;;;;11.25;10.35;;;;;;;;;;5016041;28;20366;-51
2023/04/07 00:46:10;;;;;;;10.82;10.13;;;;;;;;;;5014972;28;20429;-50
2023/04/07 00:48:36;;;;;;;11.18;10.43;;;;;;;;;;5015774;28;20095;-51
2023/04/07 00:51:02;;;;;;;11.05;10.30;;;;;;;;;;5017793;28;20030;-49
2023/04/07 00:53:28;;;;;;;12.18;11.20;;;;;;;;;;5018216;28;20042;-48
2023/04/07 00:55:53;;;;;;;12.00;10.73;;;;;;;;;;5017028;28;20040;-50
2023/04/07 00:58:18;;;;;;;11.40;10.50;;;;;;;;;;5015190;28;20040;-60
2023/04/07 01:01:18;;;;;;;11.05;10.35;;;;;;;;;;5013498;28;20527;-53
2023/04/07 01:04:07;;;;;;;11.55;10.75;;;;;;;;;;5018566;28;20092;-50
2023/04/07 01:06:37;;;;;;;11.75;10.95;;;;;;;;;;5012670;28;21702;-49
2023/04/07 01:09:08;;;;;;;11.55;10.60;;;;;;;;;;5015035;28;20612;-52
2023/04/07 01:11:43;;;;;;;11.60;10.70;;;;;;;;;;5009985;28;20041;-65
2023/04/07 01:14:10;;;;;;;10.52;9.85;;;;;;;;;;5016908;28;20540;-48
2023/04/07 01:16:45;;;;;;;12.13;11.18;;;;;;;;;;5017836;28;20029;-48
2023/04/07 01:19:22;;;;;;;12.20;11.20;;;;;;;;;;5015810;28;20044;-49
2023/04/07 01:21:51;;;;;;;11.30;10.50;;;;;;;;;;5015117;28;20139;-49
2023/04/07 01:24:38;;;;;;;12.30;11.43;;;;;;;;;;5013694;28;20549;-48
2023/04/07 01:28:00;;;;;;;12.68;11.77;;;;;;;;;;5017085;28;20074;-49
2023/04/07 01:30:31;;;;;;;11.18;10.48;;;;;;;;;;5029779;28;20053;-49
2023/04/07 01:32:59;;;;;;;11.35;10.65;;;;;;;;;;5035324;28;20457;-50
2023/04/07 01:35:28;;;;;;;12.70;11.80;;;;;;;;;;5020792;28;20060;-49
2023/04/07 01:37:54;;;;;;;9.75;9.07;;;;;;;;;;5013861;28;20467;-49
2023/04/07 01:40:21;;;;;;;11.75;10.95;;;;;;;;;;5014828;28;20131;-52
2023/04/07 01:42:47;;;;;;;10.85;10.15;;;;;;;;;;5014829;28;20471;-50
2023/04/07 01:45:15;;;;;;;10.10;9.40;;;;;;;;;;5014430;28;20041;-47
2023/04/07 01:47:41;;;;;;;10.75;10.05;;;;;;;;;;5014218;28;20034;-47
2023/04/07 01:50:09;;;;;;;11.65;10.85;;;;;;;;;;5015876;28;20049;-48
2023/04/07 01:52:35;;;;;;;10.68;10.00;;;;;;;;;;5012860;28;20575;-50
2023/04/07 01:55:03;;;;;;;14.27;11.90;;;;;;;;;;5014482;28;20482;-50
2023/04/07 01:57:28;;;;;;;11.35;10.45;;;;;;;;;;5010980;28;20147;-48
2023/04/07 01:59:53;;;;;;;11.70;10.90;;;;;;;;;;5010101;28;20657;-50
2023/04/07 02:02:19;;;;;;;10.18;9.48;;;;;;;;;;5013352;28;20030;-49
2023/04/07 02:04:55;;;;;;;10.88;10.00;;;;;;;;;;5014204;28;20041;-51
2023/04/07 02:07:29;;;;;;;12.82;11.82;;;;;;;;;;5013965;28;20079;-48
2023/04/07 02:09:57;;;;;;;11.70;10.95;;;;;;;;;;5012730;28;20787;-48
2023/04/07 02:12:26;;;;;;;11.13;10.32;;;;;;;;;;5010794;28;20288;-49
2023/04/07 02:14:52;;;;;;;10.35;9.65;;;;;;;;;;5011058;28;20117;-47
2023/04/07 02:17:18;;;;;;;9.90;9.30;;;;;;;;;;5015591;28;20120;-47
2023/04/07 02:19:44;;;;;;;11.18;10.05;;;;;;;;;;5013833;28;20044;-51
2023/04/07 02:22:11;;;;;;;11.65;10.85;;;;;;;;;;5013021;28;20098;-51
2023/04/07 02:24:39;;;;;;;11.60;10.68;;;;;;;;;;5011096;28;20120;-49
2023/04/07 02:27:05;;;;;;;12.32;11.43;;;;;;;;;;5014169;28;20038;-52
2023/04/07 02:29:30;;;;;;;11.45;10.52;;;;;;;;;;5014487;28;20115;-49
2023/04/07 02:31:55;;;;;;;12.00;11.20;;;;;;;;;;5008400;28;20412;-52
2023/04/07 02:34:21;;;;;;;10.88;10.18;;;;;;;;;;5011874;28;20033;-49
2023/04/07 02:36:46;;;;;;;11.02;10.23;;;;;;;;;;5016726;28;20124;-49
2023/04/07 02:39:11;;;;;;;10.93;10.23;;;;;;;;;;5012103;28;20099;-50
2023/04/07 02:41:37;;;;;;;12.32;11.52;;;;;;;;;;5010032;28;20385;-52
2023/04/07 02:44:02;;;;;;;11.55;10.85;;;;;;;;;;5010678;28;20088;-52
2023/04/07 02:46:28;;;;;;;12.02;11.23;;;;;;;;;;5012787;28;20033;-47
2023/04/07 02:48:53;;;;;;;12.02;11.15;;;;;;;;;;5010766;28;20029;-47
2023/04/07 02:51:18;;;;;;;12.40;11.52;;;;;;;;;;5011857;28;20367;-50
2023/04/07 02:53:44;;;;;;;13.43;12.45;;;;;;;;;;5015418;28;20112;-51
2023/04/07 02:56:09;;;;;;;13.40;12.50;;;;;;;;;;5015108;28;20037;-50
2023/04/07 02:58:35;;;;;;;13.57;12.68;;;;;;;;;;5018263;28;20119;-47
2023/04/07 03:01:00;;;;;;;12.98;12.05;;;;;;;;;;5011938;28;20052;-51
2023/04/07 03:03:26;;;;;;;13.70;12.80;;;;;;;;;;5014791;28;20029;-49
2023/04/07 03:05:51;;;;;;;13.93;13.02;;;;;;;;;;5013703;28;20038;-49
2023/04/07 03:08:16;;;;;;;12.95;12.15;;;;;;;;;;5012916;28;20030;-49
2023/04/07 03:10:42;;;;;;;13.68;12.68;;;;;;;;;;5010293;28;20129;-50
2023/04/07 03:13:08;;;;;;;15.38;13.82;;;;;;;;;;5012709;28;20095;-50
2023/04/07 03:15:33;;;;;;;12.52;11.77;;;;;;;;;;5027009;28;20391;-49
2023/04/07 03:17:59;;;;;;;13.02;12.23;;;;;;;;;;5012432;28;20100;-50
2023/04/07 03:20:24;;;;;;;12.82;12.02;;;;;;;;;;5013296;28;20487;-48
2023/04/07 03:22:49;;;;;;;13.90;13.00;;;;;;;;;;5018768;28;20095;-50
2023/04/07 03:25:15;;;;;;;13.55;12.65;;;;;;;;;;5012067;28;20037;-47
2023/04/07 03:27:41;;;;;;;13.70;12.73;;;;;;;;;;5012914;28;20041;-49
2023/04/07 03:30:07;;;;;;;14.65;13.68;;;;;;;;;;5012326;28;20697;-49
2023/04/07 03:32:32;;;;;;;13.00;12.20;;;;;;;;;;5009278;28;20030;-47
2023/04/07 03:34:58;;;;;;;13.95;12.95;;;;;;;;;;5008851;28;20045;-52
2023/04/07 03:37:23;;;;;;;14.35;13.45;;;;;;;;;;5013677;28;20033;-49
2023/04/07 03:39:48;;;;;;;14.45;13.55;;;;;;;;;;5011719;28;20061;-49
2023/04/07 03:42:14;;;;;;;14.60;13.65;;;;;;;;;;5012497;28;20052;-51
2023/04/07 03:44:39;;;;;;;14.70;13.70;;;;;;;;;;5008542;28;20030;-51
2023/04/07 03:47:05;;;;;;;15.18;14.25;;;;;;;;;;5013765;28;20060;-49
2023/04/07 03:49:31;;;;;;;13.00;12.20;;;;;;;;;;5011527;28;20045;-51
2023/04/07 03:51:57;;;;;;;12.45;11.65;;;;;;;;;;5013551;28;20029;-50
2023/04/07 03:54:22;;;;;;;13.32;12.50;;;;;;;;;;5013860;28;20048;-48
2023/04/07 03:56:48;;;;;;;14.15;13.07;;;;;;;;;;5014281;28;20460;-49
2023/04/07 03:59:13;;;;;;;14.07;13.10;;;;;;;;;;5019325;28;20515;-49
2023/04/07 04:01:39;;;;;;;13.25;12.43;;;;;;;;;;5015530;28;20139;-51
2023/04/07 04:04:04;;;;;;;13.43;12.52;;;;;;;;;;5014673;28;20606;-50
2023/04/07 04:06:30;;;;;;;13.55;12.65;;;;;;;;;;5014902;28;20042;-50
2023/04/07 04:08:55;;;;;;;13.00;12.20;;;;;;;;;;5018077;28;20056;-48
2023/04/07 04:11:21;;;;;;;14.05;12.80;;;;;;;;;;5012612;28;20370;-49
2023/04/07 04:13:46;;;;;;;12.65;11.85;;;;;;;;;;5015265;28;20655;-51
2023/04/07 04:16:12;;;;;;;13.75;12.52;;;;;;;;;;5017384;28;20105;-50
2023/04/07 04:18:37;;;;;;;12.45;11.65;;;;;;;;;;5017694;28;20038;-49
2023/04/07 04:21:02;;;;;;;13.23;12.27;;;;;;;;;;5018794;28;20045;-48
2023/04/07 04:23:28;;;;;;;11.95;11.23;;;;;;;;;;5016934;28;20120;-47
2023/04/07 04:25:53;;;;;;;12.82;11.95;;;;;;;;;;5014755;28;20065;-51
2023/04/07 04:28:18;;;;;;;11.95;11.25;;;;;;;;;;5016200;28;20037;-47
2023/04/07 04:30:44;;;;;;;11.88;11.18;;;;;;;;;;5014921;28;20030;-48
2023/04/07 04:33:09;;;;;;;11.68;10.98;;;;;;;;;;5017822;28;20033;-46
2023/04/07 04:35:35;;;;;;;13.13;12.18;;;;;;;;;;5013575;28;20034;-49
2023/04/07 04:38:00;;;;;;;12.48;11.48;;;;;;;;;;5015622;28;20353;-51
2023/04/07 04:40:25;;;;;;;12.02;11.23;;;;;;;;;;5011921;28;20075;-49
2023/04/07 04:42:51;;;;;;;12.65;11.85;;;;;;;;;;5013793;28;20061;-47
2023/04/07 04:45:16;;;;;;;11.65;10.85;;;;;;;;;;5014860;28;20501;-49
2023/04/07 04:47:42;;;;;;;12.93;12.13;;;;;;;;;;5014490;28;20164;-52
2023/04/07 04:50:08;;;;;;;12.30;11.50;;;;;;;;;;5013264;28;20170;-48
2023/04/07 04:52:34;;;;;;;12.40;11.50;;;;;;;;;;5031424;28;20057;-48
2023/04/07 04:54:59;;;;;;;13.68;12.77;;;;;;;;;;5020085;28;20042;-51
2023/04/07 04:57:25;;;;;;;12.05;11.35;;;;;;;;;;5011233;28;20038;-49
2023/04/07 04:59:50;;;;;;;13.00;12.02;;;;;;;;;;5015908;28;20532;-52
2023/04/07 05:02:16;;;;;;;13.02;12.13;;;;;;;;;;5014024;28;20061;-51
2023/04/07 05:04:41;;;;;;;13.52;12.43;;;;;;;;;;5012968;28;20140;-51
2023/04/07 05:07:06;;;;;;;11.77;10.98;;;;;;;;;;5013606;28;20471;-49
2023/04/07 05:09:32;;;;;;;13.18;12.27;;;;;;;;;;5012539;28;20463;-50
2023/04/07 05:11:57;;;;;;;11.73;10.95;;;;;;;;;;5017225;28;20471;-50
2023/04/07 05:14:22;;;;;;;13.02;12.07;;;;;;;;;;5013976;28;20044;-51
2023/04/07 05:16:48;;;;;;;12.23;11.43;;;;;;;;;;5016369;28;20037;-47
2023/04/07 05:19:14;;;;;;;12.52;11.70;;;;;;;;;;5017047;28;20625;-51
2023/04/07 05:21:39;;;;;;;13.20;12.35;;;;;;;;;;5013515;28;20050;-52
2023/04/07 05:24:05;;;;;;;12.25;11.45;;;;;;;;;;5013596;28;20374;-50
2023/04/07 05:26:30;;;;;;;12.10;11.18;;;;;;;;;;5014542;28;20403;-49
2023/04/07 05:28:56;;;;;;;11.38;10.68;;;;;;;;;;5016041;28;20483;-49
2023/04/07 05:31:21;;;;;;;10.70;10.00;;;;;;;;;;5014478;28;20447;-50
2023/04/07 05:33:46;;;;;;;11.60;10.80;;;;;;;;;;4993917;28;20482;-47
2023/04/07 05:36:12;;;;;;;11.27;10.48;;;;;;;;;;5013943;28;20040;-50
2023/04/07 05:38:37;;;;;;;10.95;10.25;;;;;;;;;;5014637;28;20125;-47
2023/04/07 05:41:02;;;;;;;10.43;9.73;;;;;;;;;;5016104;28;20056;-50
2023/04/07 05:43:28;;;;;;;11.85;11.05;;;;;;;;;;5015272;28;20045;-50
2023/04/07 05:45:53;;;;;;;11.35;10.57;;;;;;;;;;5015661;28;20487;-51
2023/04/07 05:48:18;;;;;;;11.85;11.05;;;;;;;;;;5012986;28;20372;-48
2023/04/07 05:50:44;;;;;;;11.07;10.38;;;;;;;;;;5010359;28;20455;-48
2023/04/07 05:53:09;;;;;;;11.48;10.77;;;;;;;;;;5016139;28;20440;-48
2023/04/07 05:55:35;;;;;;;12.82;11.73;;;;;;;;;;5025874;28;20041;-48
2023/04/07 05:58:01;;;;;;;11.23;10.43;;;;;;;;;;5014743;28;20132;-48
2023/04/07 06:00:26;;;;;;;9.95;9.25;;;;;;;;;;5016136;28;20037;-48
2023/04/07 06:02:51;;;;;;;12.70;11.90;;;;;;;;;;5013410;28;20119;-48
2023/04/07 06:05:17;;;;;;;11.73;10.93;;;;;;;;;;5016330;28;20069;-49
2023/04/07 06:07:42;;;;;;;11.98;11.18;;;;;;;;;;5011938;28;20034;-50
2023/04/07 06:10:07;;;;;;;11.00;10.30;;;;;;;;;;5013797;28;20212;-50
2023/04/07 06:12:33;;;;;;;12.20;11.35;;;;;;;;;;5014202;28;20056;-49
2023/04/07 06:14:58;;;;;;;11.88;11.07;;;;;;;;;;5014806;28;20199;-47
2023/04/07 06:17:23;;;;;;;13.05;12.15;;;;;;;;;;5012146;28;20466;-49
2023/04/07 06:19:49;;;;;;;12.50;11.60;;;;;;;;;;5012093;28;20514;-47
2023/04/07 06:22:14;;;;;;;11.93;11.13;;;;;;;;;;5014979;28;20048;-48
2023/04/07 06:24:40;;;;;;;12.63;11.80;;;;;;;;;;5011635;28;20044;-48
2023/04/07 06:27:06;;;;;;;12.50;11.63;;;;;;;;;;5012223;28;20061;-47
2023/04/07 06:29:32;;;;;;;11.60;10.88;;;;;;;;;;5011354;28;20148;-49
2023/04/07 06:31:58;;;;;;;12.43;11.60;;;;;;;;;;5013656;28;20482;-49
2023/04/07 06:34:23;;;;;;;11.93;11.13;;;;;;;;;;5011992;28;20050;-52
2023/04/07 06:36:48;;;;;;;11.57;10.85;;;;;;;;;;5009834;28;20026;-49
2023/04/07 06:39:14;;;;;;;12.10;11.30;;;;;;;;;;5012281;28;20041;-50
2023/04/07 06:41:41;;;;;;;12.60;11.85;;;;;;;;;;5010287;28;20049;-49
2023/04/07 06:44:08;;;;;;;13.05;12.25;;;;;;;;;;5015242;28;20037;-50
2023/04/07 06:46:33;;;;;;;13.15;12.25;;;;;;;;;;5015638;28;20026;-52
2023/04/07 06:48:58;;;;;;;12.32;11.52;;;;;;;;;;5009080;28;20040;-50
2023/04/07 06:51:25;;;;;;;16.38;14.85;;;;;;;;;;5013013;28;20049;-49
2023/04/07 06:53:50;;;;;;;14.20;13.02;;;;;;;;;;5016512;28;20035;-53
2023/04/07 06:56:15;;;;;;;12.68;11.88;;;;;;;;;;5013723;28;20519;-50
2023/04/07 06:58:41;;;;;;;12.35;11.43;;;;;;;;;;5009629;28;20056;-50
2023/04/07 07:01:06;;;;;;;12.55;11.68;;;;;;;;;;5012547;28;20049;-49
2023/04/07 07:03:32;;;;;;;13.07;12.27;;;;;;;;;;5014797;28;20360;-48
2023/04/07 07:05:58;;;;;;;12.15;11.35;;;;;;;;;;5015549;28;20098;-51
2023/04/07 07:08:25;;;;;;;13.43;12.63;;;;;;;;;;5013372;28;20033;-51
2023/04/07 07:10:50;;;;;;;13.85;12.77;;;;;;;;;;5007155;28;20033;-46
2023/04/07 07:13:17;;;;;;;12.75;11.95;;;;;;;;;;5010457;28;20042;-48
2023/04/07 07:15:43;;;;;;;12.60;11.80;;;;;;;;;;5013832;28;20056;-49
2023/04/07 07:18:08;;;;;;;13.73;12.88;;;;;;;;;;5012615;28;20531;-50
2023/04/07 07:20:34;;;;;;;15.02;13.77;;;;;;;;;;5011953;28;20042;-53
2023/04/07 07:22:59;;;;;;;13.38;12.50;;;;;;;;;;5010290;28;20030;-48
2023/04/07 07:25:28;;;;;;;13.07;12.15;;;;;;;;;;5015227;28;20117;-50
2023/04/07 07:27:53;;;;;;;12.43;11.63;;;;;;;;;;5013264;28;20367;-50
2023/04/07 07:30:22;;;;;;;13.95;13.05;;;;;;;;;;5014724;28;20092;-52
2023/04/07 07:32:48;;;;;;;13.10;12.30;;;;;;;;;;5015752;28;20104;-47
2023/04/07 07:35:14;;;;;;;12.70;11.90;;;;;;;;;;5016540;28;20038;-51
2023/04/07 07:37:40;;;;;;;13.55;12.65;;;;;;;;;;5020538;28;20030;-51
2023/04/07 07:40:06;;;;;;;13.30;12.50;;;;;;;;;;5015650;28;20120;-48
2023/04/07 07:42:31;;;;;;;13.20;12.07;;;;;;;;;;5016451;28;20624;-62
2023/04/07 07:44:57;;;;;;;13.80;12.88;;;;;;;;;;5016482;28;20132;-61
2023/04/07 07:47:23;;;;;;;12.52;11.73;;;;;;;;;;5019704;28;20041;-61
2023/04/07 07:49:49;;;;;;;12.70;11.80;;;;;;;;;;5014646;28;20396;-61
2023/04/07 07:52:14;;;;;;;13.35;12.45;;;;;;;;;;5015571;28;20120;-60
2023/04/07 07:54:40;;;;;;;12.13;11.40;;;;;;;;;;5016791;28;20309;-59
2023/04/07 07:57:05;;;;;;;13.38;12.48;;;;;;;;;;5017610;28;20033;-60
2023/04/07 07:59:31;;;;;;;13.55;12.73;;;;;;;;;;5019303;28;20056;-60
2023/04/07 08:01:57;;;;;;;12.48;11.68;;;;;;;;;;5015037;28;20083;-60
2023/04/07 08:04:22;;;;;;;12.23;11.38;;;;;;;;;;5016351;28;20048;-60
2023/04/07 08:06:49;;;;;;;14.43;13.52;;;;;;;;;;5017073;28;20029;-60
2023/04/07 08:09:15;;;;;;;14.27;13.38;;;;;;;;;;5017961;28;20037;-60
2023/04/07 08:11:40;;;;;;;14.07;13.18;;;;;;;;;;5015186;28;20060;-61
2023/04/07 08:14:06;;;;;;;12.52;11.73;;;;;;;;;;5017154;28;20042;-61
2023/04/07 08:16:31;;;;;;;13.32;12.52;;;;;;;;;;5015397;28;20081;-61
2023/04/07 08:18:57;;;;;;;12.50;11.68;;;;;;;;;;5016050;28;20115;-60
2023/04/07 08:21:22;;;;;;;14.07;13.18;;;;;;;;;;5016546;28;20125;-61
2023/04/07 08:23:48;;;;;;;13.55;12.73;;;;;;;;;;5015246;28;20090;-60
2023/04/07 08:26:13;;;;;;;13.07;12.18;;;;;;;;;;5015617;28;20479;-61
2023/04/07 08:28:38;;;;;;;14.95;13.88;;;;;;;;;;5013958;28;20336;-61
2023/04/07 08:31:04;;;;;;;14.23;13.32;;;;;;;;;;5014571;28;20551;-61
2023/04/07 08:33:29;;;;;;;15.00;14.05;;;;;;;;;;5017502;28;20091;-62
2023/04/07 08:35:55;;;;;;;15.10;14.07;;;;;;;;;;5020326;28;20088;-62
2023/04/07 08:38:21;;;;;;;14.93;13.95;;;;;;;;;;5016153;28;20100;-60
2023/04/07 08:40:51;;;;;;;12.60;11.80;;;;;;;;;;5013789;28;20034;-62
2023/04/07 08:43:18;;;;;;;13.15;12.25;;;;;;;;;;5016077;28;20041;-62
2023/04/07 08:45:45;;;;;;;14.23;13.32;;;;;;;;;;5013745;28;20073;-61
2023/04/07 08:48:16;;;;;;;12.60;11.80;;;;;;;;;;5014608;28;20574;-62
2023/04/07 08:50:44;;;;;;;12.18;11.38;;;;;;;;;;5010196;28;20107;-62
2023/04/07 08:53:13;;;;;;;25.23;23.77;;;;;;;;;;5012282;28;20148;-62
2023/04/07 08:55:40;;;;;;;12.15;11.25;;;;;;;;;;5012103;28;20033;-59
2023/04/07 08:58:11;;;;;;;12.70;11.90;;;;;;;;;;5017073;28;20026;-61
2023/04/07 09:00:38;;;;;;;12.45;11.65;;;;;;;;;;5012428;28;20045;-62
2023/04/07 09:03:04;;;;;;;14.57;13.68;;;;;;;;;;5013216;28;20426;-62
2023/04/07 09:05:31;;;;;;;13.68;12.70;;;;;;;;;;5014418;28;20048;-62
2023/04/07 09:07:56;;;;;;;13.77;12.93;;;;;;;;;;5007890;28;20029;-61
2023/04/07 09:10:22;;;;;;;14.25;13.43;;;;;;;;;;5014763;28;20246;-61
2023/04/07 09:12:48;;;;;;;14.23;13.32;;;;;;;;;;5013993;28;20088;-62
2023/04/07 09:15:13;;;;;;;14.13;13.25;;;;;;;;;;5013383;28;20038;-61
2023/04/07 09:17:39;;;;;;;14.93;13.95;;;;;;;;;;5019193;28;20037;-61
2023/04/07 09:20:04;;;;;;;13.48;12.57;;;;;;;;;;5010119;28;20555;-62
2023/04/07 09:22:50;;;;;;;13.98;13.07;;;;;;;;;;5010986;28;20463;-61
2023/04/07 09:25:21;;;;;;;15.00;14.00;;;;;;;;;;5014984;28;20045;-62
2023/04/07 09:27:54;;;;;;;14.05;13.25;;;;;;;;;;5014967;28;20091;-62
2023/04/07 09:30:20;;;;;;;12.77;11.98;;;;;;;;;;5014059;28;20049;-62
2023/04/07 09:32:45;;;;;;;13.80;12.80;;;;;;;;;;5015846;28;20034;-62
2023/04/07 09:35:11;;;;;;;14.45;13.55;;;;;;;;;;5013497;28;20531;-61
2023/04/07 09:37:36;;;;;;;13.82;13.02;;;;;;;;;;5014976;28;20455;-62
2023/04/07 09:40:02;;;;;;;14.30;13.40;;;;;;;;;;5013967;28;20037;-62
2023/04/07 09:42:33;;;;;;;13.50;12.60;;;;;;;;;;5020306;28;20105;-61
2023/04/07 09:44:59;;;;;;;14.80;13.90;;;;;;;;;;5023445;28;20033;-61
2023/04/07 09:47:30;;;;;;;13.65;12.85;;;;;;;;;;5015406;28;20030;-62
2023/04/07 09:49:56;;;;;;;14.07;13.18;;;;;;;;;;5015914;28;20059;-62
2023/04/07 09:52:24;;;;;;;12.60;11.82;;;;;;;;;;5011107;28;20037;-61
2023/04/07 09:54:50;;;;;;;13.90;13.00;;;;;;;;;;5014226;28;20036;-62
2023/04/07 09:57:17;;;;;;;12.93;12.02;;;;;;;;;;5015752;28;20620;-62
2023/04/07 09:59:43;;;;;;;14.20;13.02;;;;;;;;;;5015635;28;20068;-61
2023/04/07 10:02:09;;;;;;;13.05;12.25;;;;;;;;;;5012592;28;20045;-61
2023/04/07 10:04:34;;;;;;;15.02;14.02;;;;;;;;;;5015373;28;20038;-62
2023/04/07 10:07:00;;;;;;;13.07;12.27;;;;;;;;;;5013110;28;20046;-61
2023/04/07 10:09:27;;;;;;;15.05;14.05;;;;;;;;;;5012404;28;20038;-62
2023/04/07 10:11:54;;;;;;;15.02;14.13;;;;;;;;;;5010829;28;20041;-59
2023/04/07 10:14:22;;;;;;;16.63;15.52;;;;;;;;;;5011832;28;20046;-61
2023/04/07 10:16:48;;;;;;;15.73;14.73;;;;;;;;;;5014356;28;20034;-61
2023/04/07 10:19:15;;;;;;;15.18;14.25;;;;;;;;;;5013182;28;20068;-62
2023/04/07 10:21:42;;;;;;;15.35;14.40;;;;;;;;;;5013205;28;20625;-62
2023/04/07 10:24:30;;;;;;;15.85;14.88;;;;;;;;;;5013497;28;20046;-62
2023/04/07 10:27:01;;;;;;;14.50;13.68;;;;;;;;;;5014116;28;20337;-61
2023/04/07 10:29:30;;;;;;;15.40;14.50;;;;;;;;;;5015645;28;20037;-61
2023/04/07 10:31:57;;;;;;;15.43;14.52;;;;;;;;;;5010738;28;20037;-62
2023/04/07 10:34:52;;;;;;;18.27;17.17;;;;;;;;;;5014695;28;20046;-61
2023/04/07 10:37:20;;;;;;;16.45;15.45;;;;;;;;;;5016054;28;20044;-62
2023/04/07 10:39:46;;;;;;;15.85;14.50;;;;;;;;;;5013652;28;20034;-61
2023/04/07 10:42:39;;;;;;;16.85;15.88;;;;;;;;;;5014056;28;20060;-62
2023/04/07 10:45:07;;;;;;;17.30;16.20;;;;;;;;;;5014792;28;20044;-62
2023/04/07 10:47:33;;;;;;;15.70;14.80;;;;;;;;;;5011775;28;20034;-62
2023/04/07 10:50:16;;;;;;;16.70;15.70;;;;;;;;;;5013526;28;20048;-62
2023/04/07 10:52:42;;;;;;;16.88;15.85;;;;;;;;;;5012582;28;20116;-62
2023/04/07 10:55:30;;;;;;;17.67;16.58;;;;;;;;;;5012888;28;20046;-63
2023/04/07 10:58:23;;;;;;;14.55;13.70;;;;;;;;;;5013199;28;20026;-61
2023/04/07 11:01:13;;;;;;;15.77;14.77;;;;;;;;;;5010808;28;20643;-60
2023/04/07 11:03:41;;;;;;;17.83;16.73;;;;;;;;;;5011789;28;20052;-61
2023/04/07 11:06:11;;;;;;;19.45;18.35;;;;;;;;;;5013736;28;20029;-61
2023/04/07 11:08:38;;;;;;;16.27;15.23;;;;;;;;;;5013787;28;20030;-61
2023/04/07 11:11:07;;;;;;;16.98;15.88;;;;;;;;;;5013563;28;20534;-61
2023/04/07 11:13:43;;;;;;;17.27;16.05;;;;;;;;;;5015064;28;20490;-60
2023/04/07 11:16:09;;;;;;;15.80;14.90;;;;;;;;;;5012865;28;20042;-60
2023/04/07 11:18:36;;;;;;;18.90;17.80;;;;;;;;;;5009362;28;20539;-60
2023/04/07 11:21:02;;;;;;;15.77;14.88;;;;;;;;;;5008983;28;20048;-61
2023/04/07 11:23:27;;;;;;;19.27;18.15;;;;;;;;;;5009890;28;20033;-61
2023/04/07 11:26:00;;;;;;;17.52;16.42;;;;;;;;;;5010121;28;20056;-61
2023/04/07 11:28:26;;;;;;;18.83;17.73;;;;;;;;;;5014504;28;20033;-60
2023/04/07 11:30:53;;;;;;;15.85;14.95;;;;;;;;;;5012739;28;20037;-61
2023/04/07 11:33:21;;;;;;;12.95;12.15;;;;;;;;;;5014702;28;20076;-61
2023/04/07 11:35:55;;;;;;;15.57;14.57;;;;;;;;;;5013637;28;20108;-61
2023/04/07 11:38:22;;;;;;;13.95;13.05;;;;;;;;;;5010004;28;20034;-61
2023/04/07 11:40:48;;;;;;;12.40;11.50;;;;;;;;;;5011698;28;20029;-60
2023/04/07 11:43:23;;;;;;;16.52;15.52;;;;;;;;;;5008221;28;20036;-62
2023/04/07 11:46:08;;;;;;;18.33;17.15;;;;;;;;;;5015262;28;20045;-61
2023/04/07 11:48:35;;;;;;;14.77;13.88;;;;;;;;;;5024897;28;20661;-60
2023/04/07 11:51:01;;;;;;;13.45;12.65;;;;;;;;;;5008456;28;20033;-60
2023/04/07 11:53:27;;;;;;;13.23;12.43;;;;;;;;;;5012152;28;20085;-60
2023/04/07 11:56:02;;;;;;;12.90;12.10;;;;;;;;;;5006616;28;20038;-61
2023/04/07 11:58:27;;;;;;;13.20;12.30;;;;;;;;;;5010587;28;20068;-60
2023/04/07 12:00:54;;;;;;;11.95;11.25;;;;;;;;;;5014401;28;20041;-60
2023/04/07 12:03:20;;;;;;;11.55;10.85;;;;;;;;;;5015675;28;20125;-60
2023/04/07 12:05:45;;;;;;;12.48;11.68;;;;;;;;;;5013321;28;20112;-60
2023/04/07 12:08:13;;;;;;;12.82;11.93;;;;;;;;;;5013536;28;20088;-60
2023/04/07 12:10:40;;;;;;;11.30;10.50;;;;;;;;;;5010951;28;20732;-60
2023/04/07 12:13:07;;;;;;;11.65;10.93;;;;;;;;;;5008183;28;20107;-61
2023/04/07 12:15:32;;;;;;;12.68;11.88;;;;;;;;;;5013732;28;20148;-60
2023/04/07 12:17:57;;;;;;;11.68;10.98;;;;;;;;;;5014145;28;21247;-60
2023/04/07 12:20:23;;;;;;;11.45;10.75;;;;;;;;;;5012059;28;20392;-60
2023/04/07 12:22:48;;;;;;;12.38;11.60;;;;;;;;;;5018431;28;20341;-60
2023/04/07 12:25:14;;;;;;;11.77;11.07;;;;;;;;;;5016498;28;20152;-60
2023/04/07 12:27:39;;;;;;;13.35;12.43;;;;;;;;;;5011893;28;20025;-60
2023/04/07 12:30:05;;;;;;;13.45;12.55;;;;;;;;;;5013463;28;20034;-60
2023/04/07 12:32:31;;;;;;;11.50;10.70;;;;;;;;;;5016290;28;20049;-60
2023/04/07 12:34:57;;;;;;;12.77;11.98;;;;;;;;;;5016224;28;20323;-60
2023/04/07 12:37:22;;;;;;;13.65;12.75;;;;;;;;;;5017653;28;20065;-60
2023/04/07 12:39:47;;;;;;;13.27;12.48;;;;;;;;;;5015206;28;20056;-60
2023/04/07 12:42:13;;;;;;;13.82;12.93;;;;;;;;;;5011283;28;20458;-60
2023/04/07 12:44:39;;;;;;;12.52;11.73;;;;;;;;;;5016399;28;20099;-59
2023/04/07 12:47:04;;;;;;;11.70;11.00;;;;;;;;;;5016663;28;20056;-59
2023/04/07 12:49:30;;;;;;;12.23;11.52;;;;;;;;;;5018594;28;20071;-59
2023/04/07 12:51:56;;;;;;;13.88;12.93;;;;;;;;;;5014388;28;20053;-60
2023/04/07 12:54:21;;;;;;;16.52;15.50;;;;;;;;;;5016307;28;20057;-60
2023/04/07 12:56:47;;;;;;;18.15;17.02;;;;;;;;;;5021790;28;20071;-61
2023/04/07 12:59:12;;;;;;;18.30;17.20;;;;;;;;;;5017214;28;20114;-60
2023/04/07 13:01:39;;;;;;;18.17;17.13;;;;;;;;;;5012550;28;20126;-60
2023/04/07 13:04:04;;;;;;;14.63;13.63;;;;;;;;;;5012665;28;20407;-62
2023/04/07 13:06:31;;;;;;;12.77;11.98;;;;;;;;;;5016528;28;20075;-50
2023/04/07 13:08:56;;;;;;;13.85;12.95;;;;;;;;;;5016580;28;20029;-50
2023/04/07 13:11:22;;;;;;;14.82;13.80;;;;;;;;;;5013119;28;20116;-48
2023/04/07 13:13:47;;;;;;;14.77;13.88;;;;;;;;;;5010585;28;20025;-50
2023/04/07 13:16:12;;;;;;;14.50;13.63;;;;;;;;;;5013875;28;20036;-60
2023/04/07 13:18:38;;;;;;;13.18;12.38;;;;;;;;;;5013876;28;20413;-50
2023/04/07 13:21:04;;;;;;;12.00;11.20;;;;;;;;;;5014053;28;20029;-61
2023/04/07 13:23:29;;;;;;;12.15;11.38;;;;;;;;;;5014724;28;20398;-60
2023/04/07 13:25:55;;;;;;;12.15;11.45;;;;;;;;;;5019622;28;22486;-60
2023/04/07 13:28:20;;;;;;;12.90;12.02;;;;;;;;;;5014896;28;20133;-60
2023/04/07 13:30:46;;;;;;;15.15;14.25;;;;;;;;;;5011633;28;20444;-60
2023/04/07 13:33:11;;;;;;;13.23;12.43;;;;;;;;;;5014833;28;20034;-48
2023/04/07 13:35:37;;;;;;;12.73;11.93;;;;;;;;;;5014541;28;20383;-52
2023/04/07 13:38:03;;;;;;;12.65;11.88;;;;;;;;;;5012751;28;20060;-56
2023/04/07 13:40:28;;;;;;;12.85;11.95;;;;;;;;;;5009735;28;20424;-50
2023/04/07 13:42:55;;;;;;;12.20;11.45;;;;;;;;;;5015068;28;20048;-49
2023/04/07 13:45:20;;;;;;;12.35;11.55;;;;;;;;;;5014350;28;20444;-48
2023/04/07 13:47:45;;;;;;;13.05;12.25;;;;;;;;;;5010862;28;20041;-51
2023/04/07 13:50:11;;;;;;;11.77;11.07;;;;;;;;;;5014557;28;20553;-52
2023/04/07 13:52:36;;;;;;;14.68;13.77;;;;;;;;;;5018120;28;20129;-52
2023/04/07 13:55:03;;;;;;;12.52;11.82;;;;;;;;;;5017343;28;20033;-49
2023/04/07 13:57:28;;;;;;;16.13;15.20;;;;;;;;;;5022427;28;20064;-51
2023/04/07 13:59:54;;;;;;;15.18;14.27;;;;;;;;;;5012255;28;20033;-50
2023/04/07 14:02:20;;;;;;;16.00;15.10;;;;;;;;;;5014327;28;20398;-54
2023/04/07 14:04:45;;;;;;;15.50;14.60;;;;;;;;;;5012032;28;20087;-50
2023/04/07 14:07:11;;;;;;;14.98;14.10;;;;;;;;;;5014544;28;20057;-50
2023/04/07 14:09:37;;;;;;;14.13;13.32;;;;;;;;;;5013817;28;20030;-50
2023/04/07 14:12:03;;;;;;;12.73;11.93;;;;;;;;;;5014833;28;20716;-49
2023/04/07 14:14:29;;;;;;;12.93;12.13;;;;;;;;;;5017710;28;20032;-53
2023/04/07 14:16:56;;;;;;;11.90;11.20;;;;;;;;;;5016524;28;20037;-52